Portada
METAR-TAF:

METAR-TAF

Aeroports :

Agen, França

latitud: 44-11N, longitud: 000-36E, altitud: 61 m

Observació

L'informe es va fer fa 36 minuts, a les 04:30 UTC
Vent 2 kt del Oest
Temperatura -1°C
Humitat 93%
Pressió 1031 hPa
Visibilitat 10 km o més
sense núvols per sota de 1500 mi sense presència de cumulonimbus.

METAR: LFBA 200430Z AUTO 28002KT CAVOK M01/M02 Q1031

Hora: 06:06 (05:06 UTC)

Pronòstic

L'informe es va fer fa 12 hores i 6 minuts, a les 17:00 UTC
Pronòstic vàlid del 19 a les 18 UTC al 20 a les 03 UTC
Vent 7 kt del Nord-Oest
Visibilitat 10 km o més
sense núvols per sota de 1500 mi sense presència de cumulonimbus.
Evolucionant progressivament
l' 20 a les 00 UTC al 20 a les 02 UTC
Vent 3 kt amb direcció variable
Probabilitat 30%
l' 20 a les 01 UTC al 20 a les 03 UTC
Visibilitat: 2000 m
boirina

TAF: LFBA 191700Z 1918/2003 31007KT CAVOK BECMG 2000/2002 VRB03KT PROB30 2001/2003 2000 BR

Observacions i pronòstics meteorològics de més de 4000 aeroports (METAR i TAF).

Les estacions disponibles són els punts grocs i vermells al mapa.

Posi el ratolí al punt desitjat per veure el nom de l'estació.

Feu clic per veure les observacions i els pronòstics meteorològics.

Per canviar el mapa: feu clic els botons verds amb una creu de color negre per apropar; al botó verd amb un guió per allunyar la imatge; o en les fletxes verdes per a mapes adjacents.


METAR-TAF: